Details From KVNY - Van Nuys
To KGYR - Phoenix Goodyear
Flight Number -
Tags Decoded
Created
Modified
Stats Distance 311 nm / 576 km
Max Altitude 0 ft / 0 m
Waypoints 9
Social Downloads 4
Likes 0
Share VATSIM

Download

Looking for another format? Having issues loading an existing format? Contact us
Advertisement - Login to hide

Notes

Decoded

Route

KVNY ADAMM PDZ GARNE PSP BLH BXK PERKY KGYR

ID Type Via Altitude Latitude Longitude Leg Dist Tot Dist Heading (true) Name
O KVNY APT - 0 ft / 0 m 34.21899˚ -118.49000˚ - 0 nm - -
ADAMM FIX - 0 ft / 0 m 34.01706˚ -117.81681˚ 35 nm 35 nm 110° / 110° -
PDZ VOR - 0 ft / 0 m 33.91833˚ -117.53000˚ 15 nm 51 nm 112° / 113° PARADISE VORTAC
GARNE FIX - 0 ft / 0 m 33.87671˚ -116.56965˚ 47 nm 99 nm 93° / 93° -
PSP VOR - 0 ft / 0 m 33.87003˚ -116.42978˚ 6 nm 105 nm 93° / 93° PALM SPRINGS VORTAC
BLH VOR - 0 ft / 0 m 33.59606˚ -114.76119˚ 84 nm 190 nm 101° / 102° BLYTHE VORTAC
BXK VOR - 0 ft / 0 m 33.45344˚ -112.82458˚ 97 nm 288 nm 95° / 96° BUCKEYE VORTAC
PERKY FIX - 0 ft / 0 m 33.44576˚ -112.47317˚ 17 nm 305 nm 91° / 92° -
O KGYR APT - 0 ft / 0 m 33.41472˚ -112.38334˚ 4 nm 310 nm 112° / 113° -

Altitude Profile

Advertisement - Login to hide

Weather


0- 5 10 15 20 25 30 35+ Temperature / ° C

Clouds and Precipitation
Forecast for 2018-05-22 00:00 UTC. Updated 2 hours ago

Ground ~20,000 ft ~40,000 ft Winds

KVNY

Details ICAO KVNY (VNY)
Name Van Nuys
Region United States
Timezone America/Los_Angeles (UTC-7.0)
Stats Elevation 802 ft / 244 m (AMSL)
Location 34.210723° -118.489841°
Runways 2
Magnetic Variation 12.037° E

METAR

KVNY 220051Z 16005KT 10SM OVC030 17/10 A2985 RMK AO2 SLP102 T01670100

Decode

TAF

TAF KVNY 220007Z 2200/2224 16007KT P6SM BKN025 OVC040 FM220400 14004KT P6SM OVC020 FM221100 VRB03KT P6SM BKN010 OVC020 FM221600 15005KT P6SM BKN014 OVC027 FM221900 16008KT P6SM BKN020 BKN035

Decode

Departure Runways

ID Width Length Bearing (true) Bearing (mag) Surface Threshold Offset Overrun Length
16L 75 ft / 23 m 4,021 ft / 1,226 m 175.53° 163.49° Asphalt 1,430 ft / 436 m 0 ft / 0 m
16R 151 ft / 46 m 8,022 ft / 2,445 m 175.54° 163.50° Asphalt 1,430 ft / 436 m 151 ft / 46 m
34L 151 ft / 46 m 8,022 ft / 2,445 m 355.54° 343.50° Asphalt 0 ft / 0 m 151 ft / 46 m
34R 75 ft / 23 m 4,021 ft / 1,226 m 355.53° 343.49° Asphalt 0 ft / 0 m 0 ft / 0 m

KGYR

Details ICAO KGYR
Name Phoenix Goodyear
Region United States
Timezone America/Phoenix (UTC-7.0)
Stats Elevation 968 ft / 295 m (AMSL)
Location 33.423725° -112.374458°
Runways 1
Magnetic Variation 10.384° E

METAR

KGYR 220047Z 22008G16KT 10SM FEW120 SCT180 BKN250 33/03 A2964

Decode

TAF

Not found

Destination Runways

ID Width Length Bearing (true) Bearing (mag) Surface Threshold Offset Overrun Length
03 151 ft / 46 m 8,509 ft / 2,594 m 39.46° 29.08° Asphalt 0 ft / 0 m 200 ft / 61 m
21 151 ft / 46 m 8,509 ft / 2,594 m 219.46° 209.08° Asphalt 2,100 ft / 640 m 0 ft / 0 m